sensor_id;sensor_type;location;lat;lon;timestamp;pressure;altitude;pressure_sealevel;temperature;humidity
10988;BME280;5547;42.672;23.230;2022-08-25T00:00:44;93378.84;;;15.70;100.00
10988;BME280;5547;42.672;23.230;2022-08-25T00:03:11;93374.38;;;15.67;100.00
10988;BME280;5547;42.672;23.230;2022-08-25T00:05:37;93346.97;;;15.50;100.00
10988;BME280;5547;42.672;23.230;2022-08-25T00:08:03;93377.78;;;15.67;100.00
10988;BME280;5547;42.672;23.230;2022-08-25T00:10:31;93374.38;;;15.67;100.00
10988;BME280;5547;42.672;23.230;2022-08-25T00:12:57;93370.81;;;15.70;100.00
10988;BME280;5547;42.672;23.230;2022-08-25T00:15:23;93370.50;;;15.68;100.00
10988;BME280;5547;42.672;23.230;2022-08-25T00:17:50;93373.59;;;15.66;100.00
10988;BME280;5547;42.672;23.230;2022-08-25T00:20:16;93231.38;;;14.69;100.00
10988;BME280;5547;42.672;23.230;2022-08-25T00:22:42;93347.72;;;15.50;100.00
10988;BME280;5547;42.672;23.230;2022-08-25T00:25:07;93333.47;;;15.41;100.00
10988;BME280;5547;42.672;23.230;2022-08-25T00:27:33;93367.94;;;15.64;100.00
10988;BME280;5547;42.672;23.230;2022-08-25T00:29:59;93297.34;;;15.23;100.00
10988;BME280;5547;42.672;23.230;2022-08-25T00:32:25;93319.16;;;15.34;100.00
10988;BME280;5547;42.672;23.230;2022-08-25T00:34:51;93363.00;;;15.63;100.00
10988;BME280;5547;42.672;23.230;2022-08-25T00:37:18;93349.13;;;15.55;100.00
10988;BME280;5547;42.672;23.230;2022-08-25T00:39:44;93276.28;;;15.00;100.00
10988;BME280;5547;42.672;23.230;2022-08-25T00:42:10;93321.72;;;15.38;100.00
10988;BME280;5547;42.672;23.230;2022-08-25T00:44:36;93357.50;;;15.66;100.00
10988;BME280;5547;42.672;23.230;2022-08-25T00:47:03;93355.41;;;15.61;100.00
10988;BME280;5547;42.672;23.230;2022-08-25T00:49:41;93317.88;;;15.26;100.00
10988;BME280;5547;42.672;23.230;2022-08-25T00:52:17;93376.53;;;15.59;100.00
10988;BME280;5547;42.672;23.230;2022-08-25T00:54:54;93351.50;;;15.40;100.00
10988;BME280;5547;42.672;23.230;2022-08-25T00:57:28;93383.72;;;15.62;100.00
10988;BME280;5547;42.672;23.230;2022-08-25T00:59:54;93344.41;;;15.46;100.00
10988;BME280;5547;42.672;23.230;2022-08-25T01:02:20;93338.34;;;15.33;100.00
10988;BME280;5547;42.672;23.230;2022-08-25T01:04:47;93363.19;;;15.68;100.00
10988;BME280;5547;42.672;23.230;2022-08-25T01:07:14;93341.34;;;15.57;100.00
10988;BME280;5547;42.672;23.230;2022-08-25T01:09:40;93355.16;;;15.68;100.00
10988;BME280;5547;42.672;23.230;2022-08-25T01:12:06;93299.94;;;15.36;100.00
10988;BME280;5547;42.672;23.230;2022-08-25T01:14:33;93340.25;;;15.67;100.00
10988;BME280;5547;42.672;23.230;2022-08-25T01:16:59;93335.97;;;15.70;100.00
10988;BME280;5547;42.672;23.230;2022-08-25T01:19:26;93333.69;;;15.68;100.00
10988;BME280;5547;42.672;23.230;2022-08-25T01:21:53;93345.19;;;15.69;100.00
10988;BME280;5547;42.672;23.230;2022-08-25T01:26:56;93339.19;;;15.65;100.00
10988;BME280;5547;42.672;23.230;2022-08-25T01:29:22;93349.78;;;15.68;100.00
10988;BME280;5547;42.672;23.230;2022-08-25T01:31:58;93342.50;;;15.69;100.00
10988;BME280;5547;42.672;23.230;2022-08-25T01:34:27;93336.06;;;15.66;100.00
10988;BME280;5547;42.672;23.230;2022-08-25T01:36:54;93282.31;;;15.26;100.00
10988;BME280;5547;42.672;23.230;2022-08-25T01:39:21;93333.38;;;15.66;100.00
10988;BME280;5547;42.672;23.230;2022-08-25T01:44:13;93347.84;;;15.82;100.00
10988;BME280;5547;42.672;23.230;2022-08-25T01:46:39;93328.44;;;15.78;100.00
10988;BME280;5547;42.672;23.230;2022-08-25T01:49:04;93294.19;;;15.60;100.00
10988;BME280;5547;42.672;23.230;2022-08-25T01:51:38;93338.53;;;15.95;100.00
10988;BME280;5547;42.672;23.230;2022-08-25T01:54:04;93339.53;;;16.11;100.00
10988;BME280;5547;42.672;23.230;2022-08-25T01:56:29;93337.44;;;16.15;100.00
10988;BME280;5547;42.672;23.230;2022-08-25T01:58:56;93341.06;;;16.21;100.00
10988;BME280;5547;42.672;23.230;2022-08-25T02:01:22;93301.56;;;15.90;100.00
10988;BME280;5547;42.672;23.230;2022-08-25T02:03:50;93341.69;;;16.25;100.00
10988;BME280;5547;42.672;23.230;2022-08-25T02:06:20;93293.56;;;16.00;100.00
10988;BME280;5547;42.672;23.230;2022-08-25T02:08:50;93314.72;;;16.29;100.00
10988;BME280;5547;42.672;23.230;2022-08-25T02:11:16;93315.47;;;16.29;98.60
10988;BME280;5547;42.672;23.230;2022-08-25T02:13:42;93334.66;;;16.50;98.93
10988;BME280;5547;42.672;23.230;2022-08-25T02:16:09;93332.88;;;16.56;99.20
10988;BME280;5547;42.672;23.230;2022-08-25T02:18:39;93335.13;;;16.57;99.08
10988;BME280;5547;42.672;23.230;2022-08-25T02:21:04;93331.88;;;16.63;97.86
10988;BME280;5547;42.672;23.230;2022-08-25T02:23:30;93330.22;;;16.65;98.67
10988;BME280;5547;42.672;23.230;2022-08-25T02:25:56;93326.38;;;16.66;97.93
10988;BME280;5547;42.672;23.230;2022-08-25T02:28:21;93325.16;;;16.67;98.01
10988;BME280;5547;42.672;23.230;2022-08-25T02:30:47;93299.47;;;16.48;98.31
10988;BME280;5547;42.672;23.230;2022-08-25T02:33:12;93245.75;;;16.07;98.54
10988;BME280;5547;42.672;23.230;2022-08-25T02:35:38;93294.34;;;16.41;98.64
10988;BME280;5547;42.672;23.230;2022-08-25T02:38:04;93279.50;;;16.17;98.74
10988;BME280;5547;42.672;23.230;2022-08-25T02:40:30;93285.47;;;16.22;98.74
10988;BME280;5547;42.672;23.230;2022-08-25T02:42:55;93320.16;;;16.47;98.41
10988;BME280;5547;42.672;23.230;2022-08-25T02:45:22;93330.16;;;16.47;98.18
10988;BME280;5547;42.672;23.230;2022-08-25T02:47:47;93327.78;;;16.49;97.12
10988;BME280;5547;42.672;23.230;2022-08-25T02:50:12;93273.31;;;16.08;97.12
10988;BME280;5547;42.672;23.230;2022-08-25T02:52:39;93329.56;;;16.52;96.62
10988;BME280;5547;42.672;23.230;2022-08-25T02:55:07;93329.75;;;16.57;97.02
10988;BME280;5547;42.672;23.230;2022-08-25T02:57:33;93243.28;;;15.91;96.44
10988;BME280;5547;42.672;23.230;2022-08-25T02:59:58;93331.66;;;16.48;96.62
10988;BME280;5547;42.672;23.230;2022-08-25T03:02:25;93339.72;;;16.48;96.58
10988;BME280;5547;42.672;23.230;2022-08-25T03:04:51;93299.03;;;16.18;96.15
10988;BME280;5547;42.672;23.230;2022-08-25T03:07:18;93321.91;;;16.32;96.07
10988;BME280;5547;42.672;23.230;2022-08-25T03:09:44;93294.88;;;16.26;96.18
10988;BME280;5547;42.672;23.230;2022-08-25T03:12:10;93340.94;;;16.56;95.37
10988;BME280;5547;42.672;23.230;2022-08-25T03:14:37;93311.06;;;16.45;94.96
10988;BME280;5547;42.672;23.230;2022-08-25T03:17:04;93336.19;;;16.60;95.62
10988;BME280;5547;42.672;23.230;2022-08-25T03:19:30;93286.50;;;16.24;95.57
10988;BME280;5547;42.672;23.230;2022-08-25T03:21:55;93333.34;;;16.54;95.61
10988;BME280;5547;42.672;23.230;2022-08-25T03:24:22;93336.16;;;16.51;95.81
10988;BME280;5547;42.672;23.230;2022-08-25T03:26:47;93313.38;;;16.33;95.33
10988;BME280;5547;42.672;23.230;2022-08-25T03:29:25;93326.59;;;16.50;95.36
10988;BME280;5547;42.672;23.230;2022-08-25T03:31:52;93209.00;;;15.64;95.66
10988;BME280;5547;42.672;23.230;2022-08-25T03:34:20;93343.00;;;16.52;95.59
10988;BME280;5547;42.672;23.230;2022-08-25T03:36:48;93335.25;;;16.54;95.38
10988;BME280;5547;42.672;23.230;2022-08-25T03:39:15;93332.13;;;16.55;95.03
10988;BME280;5547;42.672;23.230;2022-08-25T03:41:40;93339.75;;;16.57;94.65
10988;BME280;5547;42.672;23.230;2022-08-25T03:44:07;93344.50;;;16.53;95.19
10988;BME280;5547;42.672;23.230;2022-08-25T03:46:38;93337.34;;;16.50;95.43
10988;BME280;5547;42.672;23.230;2022-08-25T03:49:06;93309.97;;;16.33;95.12
10988;BME280;5547;42.672;23.230;2022-08-25T03:51:42;93307.75;;;16.31;95.63
10988;BME280;5547;42.672;23.230;2022-08-25T03:54:09;93318.75;;;16.33;95.36
10988;BME280;5547;42.672;23.230;2022-08-25T03:56:35;93328.22;;;16.47;95.44
10988;BME280;5547;42.672;23.230;2022-08-25T03:59:02;93335.53;;;16.47;95.28
10988;BME280;5547;42.672;23.230;2022-08-25T04:01:28;93333.72;;;16.44;95.98
10988;BME280;5547;42.672;23.230;2022-08-25T04:03:54;93302.03;;;16.20;96.32
10988;BME280;5547;42.672;23.230;2022-08-25T04:06:20;93328.31;;;16.34;96.43
10988;BME280;5547;42.672;23.230;2022-08-25T04:08:46;93323.69;;;16.35;96.01
10988;BME280;5547;42.672;23.230;2022-08-25T04:11:17;93325.31;;;16.32;96.37
10988;BME280;5547;42.672;23.230;2022-08-25T04:13:44;93330.69;;;16.32;96.76
10988;BME280;5547;42.672;23.230;2022-08-25T04:16:23;93312.19;;;16.25;96.61
10988;BME280;5547;42.672;23.230;2022-08-25T04:18:50;93333.25;;;16.36;96.57
10988;BME280;5547;42.672;23.230;2022-08-25T04:21:17;93334.63;;;16.41;97.20
10988;BME280;5547;42.672;23.230;2022-08-25T04:23:46;93320.06;;;16.29;97.57
10988;BME280;5547;42.672;23.230;2022-08-25T04:26:25;93327.78;;;16.49;96.73
10988;BME280;5547;42.672;23.230;2022-08-25T04:28:52;93322.88;;;16.56;96.37
10988;BME280;5547;42.672;23.230;2022-08-25T04:31:19;93323.81;;;16.63;96.17
10988;BME280;5547;42.672;23.230;2022-08-25T04:33:46;93319.66;;;16.71;95.78
10988;BME280;5547;42.672;23.230;2022-08-25T04:36:14;93312.66;;;16.73;95.75
10988;BME280;5547;42.672;23.230;2022-08-25T04:38:41;93284.31;;;16.72;95.01
10988;BME280;5547;42.672;23.230;2022-08-25T04:41:08;93306.56;;;16.73;94.51
10988;BME280;5547;42.672;23.230;2022-08-25T04:43:34;93333.03;;;16.93;94.97
10988;BME280;5547;42.672;23.230;2022-08-25T04:46:08;93327.97;;;17.04;94.80
10988;BME280;5547;42.672;23.230;2022-08-25T04:48:35;93325.63;;;17.25;94.60
10988;BME280;5547;42.672;23.230;2022-08-25T04:51:05;93267.06;;;16.92;93.51
10988;BME280;5547;42.672;23.230;2022-08-25T04:53:32;93327.00;;;17.48;92.59
10988;BME280;5547;42.672;23.230;2022-08-25T04:55:57;93328.34;;;17.71;92.50
10988;BME280;5547;42.672;23.230;2022-08-25T04:58:23;93268.75;;;17.63;89.67
10988;BME280;5547;42.672;23.230;2022-08-25T05:00:48;93334.28;;;18.21;87.83
10988;BME280;5547;42.672;23.230;2022-08-25T05:03:14;93139.75;;;17.08;86.63
10988;BME280;5547;42.672;23.230;2022-08-25T05:05:39;93333.13;;;18.55;84.61
10988;BME280;5547;42.672;23.230;2022-08-25T05:08:05;93333.03;;;18.74;84.45
10988;BME280;5547;42.672;23.230;2022-08-25T05:10:32;93286.47;;;18.49;84.04
10988;BME280;5547;42.672;23.230;2022-08-25T05:12:57;93284.47;;;18.59;83.93
10988;BME280;5547;42.672;23.230;2022-08-25T05:15:24;93328.47;;;19.22;82.40
10988;BME280;5547;42.672;23.230;2022-08-25T05:18:09;93333.22;;;19.51;79.66
10988;BME280;5547;42.672;23.230;2022-08-25T05:20:37;93333.00;;;19.40;81.10
10988;BME280;5547;42.672;23.230;2022-08-25T05:23:03;93326.00;;;19.34;80.43
10988;BME280;5547;42.672;23.230;2022-08-25T05:25:29;93324.97;;;19.31;79.30
10988;BME280;5547;42.672;23.230;2022-08-25T05:27:54;93322.47;;;19.27;79.88
10988;BME280;5547;42.672;23.230;2022-08-25T05:30:20;93331.22;;;19.13;81.42
10988;BME280;5547;42.672;23.230;2022-08-25T05:32:45;93334.59;;;18.99;82.18
10988;BME280;5547;42.672;23.230;2022-08-25T05:35:11;93305.13;;;18.95;81.88
10988;BME280;5547;42.672;23.230;2022-08-25T05:37:36;93218.50;;;18.30;82.58
10988;BME280;5547;42.672;23.230;2022-08-25T05:40:04;93321.75;;;18.94;81.44
10988;BME280;5547;42.672;23.230;2022-08-25T05:42:29;93273.59;;;18.86;80.84
10988;BME280;5547;42.672;23.230;2022-08-25T05:44:55;93320.13;;;19.20;79.81
10988;BME280;5547;42.672;23.230;2022-08-25T05:47:20;93311.75;;;19.18;79.91
10988;BME280;5547;42.672;23.230;2022-08-25T05:49:46;93326.72;;;19.58;78.21
10988;BME280;5547;42.672;23.230;2022-08-25T05:52:11;93178.28;;;18.51;78.38
10988;BME280;5547;42.672;23.230;2022-08-25T05:54:37;93303.34;;;19.40;79.03
10988;BME280;5547;42.672;23.230;2022-08-25T05:57:05;93253.41;;;19.06;77.29
10988;BME280;5547;42.672;23.230;2022-08-25T05:59:30;93326.72;;;19.58;77.53
10988;BME280;5547;42.672;23.230;2022-08-25T06:01:56;93329.28;;;19.62;77.56
10988;BME280;5547;42.672;23.230;2022-08-25T06:04:40;93331.03;;;19.65;77.32
10988;BME280;5547;42.672;23.230;2022-08-25T06:07:05;93323.97;;;19.67;76.77
10988;BME280;5547;42.672;23.230;2022-08-25T06:09:31;93288.09;;;19.52;78.00
10988;BME280;5547;42.672;23.230;2022-08-25T06:11:56;93333.16;;;20.00;76.52
10988;BME280;5547;42.672;23.230;2022-08-25T06:14:23;93336.59;;;20.00;76.27
10988;BME280;5547;42.672;23.230;2022-08-25T06:16:48;93330.75;;;20.02;75.65
10988;BME280;5547;42.672;23.230;2022-08-25T06:19:16;93329.91;;;20.25;74.43
10988;BME280;5547;42.672;23.230;2022-08-25T06:21:41;93305.63;;;20.10;74.31
10988;BME280;5547;42.672;23.230;2022-08-25T06:24:07;93328.88;;;20.52;73.38
10988;BME280;5547;42.672;23.230;2022-08-25T06:26:34;93318.53;;;20.21;75.08
10988;BME280;5547;42.672;23.230;2022-08-25T06:28:59;93280.47;;;19.75;75.69
10988;BME280;5547;42.672;23.230;2022-08-25T06:31:25;93327.84;;;20.35;73.82
10988;BME280;5547;42.672;23.230;2022-08-25T06:33:50;93333.25;;;20.50;74.19
10988;BME280;5547;42.672;23.230;2022-08-25T06:36:16;93322.19;;;20.63;73.48
10988;BME280;5547;42.672;23.230;2022-08-25T06:38:44;93325.91;;;20.50;73.62
10988;BME280;5547;42.672;23.230;2022-08-25T06:41:10;93318.97;;;20.79;71.65
10988;BME280;5547;42.672;23.230;2022-08-25T06:43:36;93303.47;;;20.94;70.76
10988;BME280;5547;42.672;23.230;2022-08-25T06:46:12;93318.28;;;20.99;70.54
10988;BME280;5547;42.672;23.230;2022-08-25T06:48:39;93327.47;;;21.07;72.04
10988;BME280;5547;42.672;23.230;2022-08-25T06:51:09;93300.19;;;21.46;70.58
10988;BME280;5547;42.672;23.230;2022-08-25T06:53:36;93318.69;;;21.74;68.97
10988;BME280;5547;42.672;23.230;2022-08-25T06:56:03;93279.09;;;21.50;68.23
10988;BME280;5547;42.672;23.230;2022-08-25T06:58:29;93322.84;;;21.69;69.42
10988;BME280;5547;42.672;23.230;2022-08-25T07:00:54;93237.22;;;21.25;68.35
10988;BME280;5547;42.672;23.230;2022-08-25T07:03:20;93319.00;;;22.02;68.03
10988;BME280;5547;42.672;23.230;2022-08-25T07:05:53;93294.78;;;22.19;65.30
10988;BME280;5547;42.672;23.230;2022-08-25T07:08:19;93291.06;;;22.16;65.72
10988;BME280;5547;42.672;23.230;2022-08-25T07:10:45;93323.47;;;22.05;66.57
10988;BME280;5547;42.672;23.230;2022-08-25T07:13:11;93298.09;;;22.29;66.77
10988;BME280;5547;42.672;23.230;2022-08-25T07:15:37;93324.09;;;22.47;64.94
10988;BME280;5547;42.672;23.230;2022-08-25T07:18:04;93315.19;;;22.40;66.70
10988;BME280;5547;42.672;23.230;2022-08-25T07:20:29;93306.56;;;22.74;65.10
10988;BME280;5547;42.672;23.230;2022-08-25T07:22:56;93321.97;;;22.56;64.66
10988;BME280;5547;42.672;23.230;2022-08-25T07:25:22;93322.22;;;22.58;66.31
10988;BME280;5547;42.672;23.230;2022-08-25T07:27:47;93322.47;;;22.92;64.31
10988;BME280;5547;42.672;23.230;2022-08-25T07:30:13;93320.69;;;22.89;64.10
10988;BME280;5547;42.672;23.230;2022-08-25T07:32:39;93307.78;;;22.73;64.05
10988;BME280;5547;42.672;23.230;2022-08-25T07:35:05;93321.22;;;22.93;63.76
10988;BME280;5547;42.672;23.230;2022-08-25T07:37:51;93322.34;;;23.13;64.23
10988;BME280;5547;42.672;23.230;2022-08-25T07:40:21;93319.03;;;22.97;63.44
10988;BME280;5547;42.672;23.230;2022-08-25T07:42:52;93310.13;;;22.91;63.23
10988;BME280;5547;42.672;23.230;2022-08-25T07:45:19;93312.22;;;22.76;64.94
10988;BME280;5547;42.672;23.230;2022-08-25T07:47:45;93287.50;;;22.62;64.76
10988;BME280;5547;42.672;23.230;2022-08-25T07:50:11;93256.00;;;22.71;64.07
10988;BME280;5547;42.672;23.230;2022-08-25T07:52:39;93321.59;;;23.12;63.12
10988;BME280;5547;42.672;23.230;2022-08-25T07:55:05;93272.88;;;22.49;63.36
10988;BME280;5547;42.672;23.230;2022-08-25T07:57:32;93122.16;;;20.77;64.94
10988;BME280;5547;42.672;23.230;2022-08-25T07:59:57;93310.63;;;22.26;65.93
10988;BME280;5547;42.672;23.230;2022-08-25T08:02:24;93315.47;;;22.48;66.27
10988;BME280;5547;42.672;23.230;2022-08-25T08:04:51;93283.31;;;22.61;63.62
10988;BME280;5547;42.672;23.230;2022-08-25T08:07:23;93311.22;;;22.73;64.55
10988;BME280;5547;42.672;23.230;2022-08-25T08:09:49;93289.44;;;22.56;64.48
10988;BME280;5547;42.672;23.230;2022-08-25T08:12:15;93217.78;;;22.26;64.07
10988;BME280;5547;42.672;23.230;2022-08-25T08:14:40;93317.66;;;22.76;62.79
10988;BME280;5547;42.672;23.230;2022-08-25T08:17:07;93308.13;;;22.92;65.61
10988;BME280;5547;42.672;23.230;2022-08-25T08:19:34;93284.72;;;22.94;63.76
10988;BME280;5547;42.672;23.230;2022-08-25T08:21:59;93305.91;;;23.27;61.58
10988;BME280;5547;42.672;23.230;2022-08-25T08:24:28;93265.00;;;22.88;60.96
10988;BME280;5547;42.672;23.230;2022-08-25T08:26:53;93303.19;;;23.27;61.34
10988;BME280;5547;42.672;23.230;2022-08-25T08:29:19;93144.94;;;22.39;62.85
10988;BME280;5547;42.672;23.230;2022-08-25T08:31:46;93223.91;;;23.01;61.79
10988;BME280;5547;42.672;23.230;2022-08-25T08:34:12;93285.97;;;23.36;62.53
10988;BME280;5547;42.672;23.230;2022-08-25T08:36:37;93240.09;;;22.90;61.54
10988;BME280;5547;42.672;23.230;2022-08-25T08:39:02;93293.44;;;23.53;62.14
10988;BME280;5547;42.672;23.230;2022-08-25T08:52:14;93283.41;;;23.81;60.23
10988;BME280;5547;42.672;23.230;2022-08-25T08:54:44;93289.41;;;24.08;57.76
10988;BME280;5547;42.672;23.230;2022-08-25T08:57:17;93290.69;;;24.52;59.21
10988;BME280;5547;42.672;23.230;2022-08-25T08:59:59;93286.16;;;25.00;57.87
10988;BME280;5547;42.672;23.230;2022-08-25T09:02:29;93276.53;;;24.76;56.80
10988;BME280;5547;42.672;23.230;2022-08-25T09:05:01;93270.84;;;24.91;59.59
10988;BME280;5547;42.672;23.230;2022-08-25T09:07:34;93277.03;;;24.91;59.07
10988;BME280;5547;42.672;23.230;2022-08-25T09:10:02;93284.22;;;24.78;60.01
10988;BME280;5547;42.672;23.230;2022-08-25T09:21:50;93280.53;;;24.58;55.89
10988;BME280;5547;42.672;23.230;2022-08-25T09:27:21;93272.84;;;24.73;53.97
10988;BME280;5547;42.672;23.230;2022-08-25T09:32:54;93263.69;;;24.77;51.83
10988;BME280;5547;42.672;23.230;2022-08-25T09:35:32;93238.00;;;23.99;56.72
10988;BME280;5547;42.672;23.230;2022-08-25T09:38:03;93266.44;;;24.43;55.07
10988;BME280;5547;42.672;23.230;2022-08-25T09:40:39;93270.13;;;24.17;54.93
10988;BME280;5547;42.672;23.230;2022-08-25T09:44:02;93271.59;;;24.24;56.55
10988;BME280;5547;42.672;23.230;2022-08-25T09:46:16;93265.91;;;24.16;54.85
10988;BME280;5547;42.672;23.230;2022-08-25T09:48:53;93267.91;;;24.32;53.73
10988;BME280;5547;42.672;23.230;2022-08-25T09:51:30;93262.22;;;24.25;53.51
10988;BME280;5547;42.672;23.230;2022-08-25T09:54:02;93263.47;;;24.29;54.86
10988;BME280;5547;42.672;23.230;2022-08-25T09:56:31;93234.72;;;23.66;53.64
10988;BME280;5547;42.672;23.230;2022-08-25T09:59:23;93263.56;;;23.58;56.04
10988;BME280;5547;42.672;23.230;2022-08-25T10:01:49;93274.13;;;23.39;57.77
10988;BME280;5547;42.672;23.230;2022-08-25T10:06:52;93267.03;;;23.59;56.99
10988;BME280;5547;42.672;23.230;2022-08-25T10:09:33;93269.50;;;23.68;57.97
10988;BME280;5547;42.672;23.230;2022-08-25T10:12:00;93263.34;;;23.62;54.04
10988;BME280;5547;42.672;23.230;2022-08-25T10:14:35;93272.22;;;23.62;54.49
10988;BME280;5547;42.672;23.230;2022-08-25T10:17:28;93267.31;;;23.72;52.84
10988;BME280;5547;42.672;23.230;2022-08-25T10:20:12;93237.16;;;23.59;54.33
10988;BME280;5547;42.672;23.230;2022-08-25T10:22:41;93263.69;;;23.92;53.37
10988;BME280;5547;42.672;23.230;2022-08-25T10:25:09;93026.91;;;22.21;55.05
10988;BME280;5547;42.672;23.230;2022-08-25T10:30:26;93255.28;;;23.90;53.00
10988;BME280;5547;42.672;23.230;2022-08-25T10:35:34;93246.59;;;23.75;54.99
10988;BME280;5547;42.672;23.230;2022-08-25T10:47:41;93242.13;;;25.01;47.25
10988;BME280;5547;42.672;23.230;2022-08-25T10:50:29;93203.91;;;24.48;48.67
10988;BME280;5547;42.672;23.230;2022-08-25T10:56:45;93234.19;;;25.03;48.36
10988;BME280;5547;42.672;23.230;2022-08-25T11:04:03;93238.63;;;25.06;47.22
10988;BME280;5547;42.672;23.230;2022-08-25T11:09:17;93236.59;;;25.29;46.79
10988;BME280;5547;42.672;23.230;2022-08-25T11:11:51;93129.19;;;24.72;46.14
10988;BME280;5547;42.672;23.230;2022-08-25T11:14:31;93187.88;;;25.26;45.98
10988;BME280;5547;42.672;23.230;2022-08-25T11:17:11;93205.34;;;25.47;46.57
10988;BME280;5547;42.672;23.230;2022-08-25T11:19:42;93213.22;;;25.56;46.96
10988;BME280;5547;42.672;23.230;2022-08-25T11:25:19;93211.72;;;25.55;46.24
10988;BME280;5547;42.672;23.230;2022-08-25T11:28:02;93177.44;;;25.77;45.31
10988;BME280;5547;42.672;23.230;2022-08-25T11:30:31;93151.72;;;25.67;45.32
10988;BME280;5547;42.672;23.230;2022-08-25T11:32:57;93203.53;;;26.03;45.20
10988;BME280;5547;42.672;23.230;2022-08-25T11:35:39;93115.41;;;25.58;44.94
10988;BME280;5547;42.672;23.230;2022-08-25T11:41:33;93178.81;;;25.53;46.72
10988;BME280;5547;42.672;23.230;2022-08-25T11:52:37;93182.59;;;25.39;46.37
10988;BME280;5547;42.672;23.230;2022-08-25T11:54:53;93157.38;;;24.74;49.72
10988;BME280;5547;42.672;23.230;2022-08-25T11:57:22;93183.06;;;25.43;48.07
10988;BME280;5547;42.672;23.230;2022-08-25T12:05:03;93135.53;;;25.80;45.50
10988;BME280;5547;42.672;23.230;2022-08-25T12:10:59;93123.81;;;25.13;46.20
10988;BME280;5547;42.672;23.230;2022-08-25T12:43:24;93171.31;;;25.65;45.42
10988;BME280;5547;42.672;23.230;2022-08-25T12:45:52;93170.44;;;25.46;45.94
10988;BME280;5547;42.672;23.230;2022-08-25T12:51:08;93180.47;;;25.15;46.33
10988;BME280;5547;42.672;23.230;2022-08-25T12:54:14;93173.75;;;25.33;44.09
10988;BME280;5547;42.672;23.230;2022-08-25T12:56:44;93170.34;;;25.63;45.05
10988;BME280;5547;42.672;23.230;2022-08-25T12:59:18;93135.56;;;25.44;42.61
10988;BME280;5547;42.672;23.230;2022-08-25T13:10:44;93160.03;;;25.86;42.70
10988;BME280;5547;42.672;23.230;2022-08-25T13:16:03;93183.22;;;25.09;45.53
10988;BME280;5547;42.672;23.230;2022-08-25T13:18:33;93165.94;;;25.01;45.06
10988;BME280;5547;42.672;23.230;2022-08-25T13:21:22;93180.28;;;25.07;45.72
10988;BME280;5547;42.672;23.230;2022-08-25T13:23:50;93169.44;;;25.49;45.27
10988;BME280;5547;42.672;23.230;2022-08-25T13:26:26;93160.88;;;25.28;44.17
10988;BME280;5547;42.672;23.230;2022-08-25T13:29:12;93174.28;;;25.14;45.36
10988;BME280;5547;42.672;23.230;2022-08-25T13:31:56;93180.84;;;24.89;46.21
10988;BME280;5547;42.672;23.230;2022-08-25T13:34:25;93179.94;;;24.47;46.82
10988;BME280;5547;42.672;23.230;2022-08-25T13:36:52;93183.38;;;24.42;46.47
10988;BME280;5547;42.672;23.230;2022-08-25T13:39:37;93173.03;;;24.23;45.87
10988;BME280;5547;42.672;23.230;2022-08-25T13:42:05;93159.41;;;24.46;45.48
10988;BME280;5547;42.672;23.230;2022-08-25T13:44:35;93161.78;;;24.83;44.85
10988;BME280;5547;42.672;23.230;2022-08-25T13:47:37;93147.56;;;25.19;44.48
10988;BME280;5547;42.672;23.230;2022-08-25T13:52:55;93172.69;;;25.42;43.72
10988;BME280;5547;42.672;23.230;2022-08-25T13:58:14;93170.09;;;25.61;42.62
10988;BME280;5547;42.672;23.230;2022-08-25T14:00:46;93165.63;;;25.63;42.89
10988;BME280;5547;42.672;23.230;2022-08-25T14:03:35;93163.06;;;25.76;43.79
10988;BME280;5547;42.672;23.230;2022-08-25T14:11:41;93170.66;;;25.53;43.78
10988;BME280;5547;42.672;23.230;2022-08-25T14:14:32;93162.56;;;25.42;44.24
10988;BME280;5547;42.672;23.230;2022-08-25T14:17:06;93134.06;;;25.49;44.26
10988;BME280;5547;42.672;23.230;2022-08-25T14:19:33;93162.28;;;25.82;42.17
10988;BME280;5547;42.672;23.230;2022-08-25T14:21:59;93147.75;;;25.32;42.46
10988;BME280;5547;42.672;23.230;2022-08-25T14:24:31;93125.38;;;24.98;43.27
10988;BME280;5547;42.672;23.230;2022-08-25T14:26:57;93175.44;;;24.78;46.33
10988;BME280;5547;42.672;23.230;2022-08-25T14:29:23;93161.69;;;25.11;44.02
10988;BME280;5547;42.672;23.230;2022-08-25T14:31:48;93139.56;;;24.79;44.34
10988;BME280;5547;42.672;23.230;2022-08-25T14:34:29;93165.41;;;25.08;43.21
10988;BME280;5547;42.672;23.230;2022-08-25T14:36:56;93164.00;;;24.90;43.67
10988;BME280;5547;42.672;23.230;2022-08-25T14:39:24;93151.50;;;24.53;45.82
10988;BME280;5547;42.672;23.230;2022-08-25T14:41:50;93166.34;;;24.47;44.59
10988;BME280;5547;42.672;23.230;2022-08-25T14:44:16;93166.84;;;24.34;45.05
10988;BME280;5547;42.672;23.230;2022-08-25T14:46:53;93172.28;;;24.34;46.02
10988;BME280;5547;42.672;23.230;2022-08-25T14:49:23;93170.09;;;23.99;46.62
10988;BME280;5547;42.672;23.230;2022-08-25T14:51:51;93144.88;;;23.98;46.13
10988;BME280;5547;42.672;23.230;2022-08-25T14:54:25;93166.88;;;24.17;45.13
10988;BME280;5547;42.672;23.230;2022-08-25T14:56:51;93166.63;;;24.21;45.38
10988;BME280;5547;42.672;23.230;2022-08-25T14:59:17;93164.63;;;24.21;45.44
10988;BME280;5547;42.672;23.230;2022-08-25T15:01:43;93159.44;;;24.23;45.27
10988;BME280;5547;42.672;23.230;2022-08-25T15:04:12;93160.69;;;24.11;45.91
10988;BME280;5547;42.672;23.230;2022-08-25T15:06:39;93167.59;;;24.12;45.55
10988;BME280;5547;42.672;23.230;2022-08-25T15:09:08;93166.13;;;24.33;45.02
10988;BME280;5547;42.672;23.230;2022-08-25T15:11:45;93105.66;;;23.77;46.41
10988;BME280;5547;42.672;23.230;2022-08-25T15:14:13;93175.03;;;23.95;48.01
10988;BME280;5547;42.672;23.230;2022-08-25T15:16:46;93177.25;;;24.02;47.85
10988;BME280;5547;42.672;23.230;2022-08-25T15:19:14;93172.31;;;23.95;46.89
10988;BME280;5547;42.672;23.230;2022-08-25T15:21:41;93171.09;;;24.01;47.32
10988;BME280;5547;42.672;23.230;2022-08-25T15:24:08;93154.25;;;23.69;47.16
10988;BME280;5547;42.672;23.230;2022-08-25T15:29:09;93171.53;;;23.60;48.57